Weather

DAILY 7 DAY TOTAL
onrain

Note: Some stations are located near irrigated fields and may also report irrigation

Alliston Mount Forest Blyth Guelph Grand Bend Strathroy Woodstock Belmont Simcoe Leamington Chatham West Lorne






Simcoe-Research Station - Historical Weather Data
Date Max Temp (°C) Min Temp (°C) Avg Temp (°C) Rain (mm) 7Day Rain(mm) Total Rain(mm) Avg RH (%)
5/24/2018 27.7 9.7 20.0 0.0 11.6 63.8 54.9
5/23/2018 25.9 12.5 18.8 0.0 11.6 63.8 66.4
5/22/2018 21.4 13.2 16.3 3.2 11.6 63.8 88.7
5/21/2018 21.2 7.8 14.8 1.4 17.0 60.6 65.0
5/20/2018 20.0 12.2 16.2 0.0 16.0 59.2 83.2
5/19/2018 20.1 9.7 14.8 7.0 16.0 59.2 86.9
5/18/2018 16.9 9.4 13.5 0.0 20.6 52.2 51.1
5/17/2018 24.5 11.0 18.7 0.0 21.8 52.2 68.5
5/16/2018 22.7 9.5 16.3 0.0 29.6 52.2 71.9
5/15/2018 21.4 13.1 16.4 8.6 29.6 52.2 90.3
5/14/2018 22.0 9.1 15.3 0.4 21.0 43.6 83.8
5/13/2018 18.7 6.8 12.9 0.0 20.6 43.2 65.7
5/12/2018 14.3 4.7 8.9 11.6 31.6 43.2 67.3
5/11/2018 10.3 2.5 6.6 1.2 20.0 31.6 70.1
5/10/2018 19.6 8.5 16.5 7.8 26.6 30.4 76.1
5/9/2018 26.3 7.6 16.6 0.0 22.6 22.6 67.5
5/8/2018 22.0 5.3 13.6 0.0 22.6 22.6 60.2
5/7/2018 17.3 8.9 13.1 0.0 22.6 22.6 59.4
5/6/2018 21.3 9.4 14.0 11.0 22.6 22.6 78.4
5/5/2018 22.8 8.4 15.7 0.0 11.6 11.6 59.7
5/4/2018 23.8 8.9 15.9 7.8 12.2 11.6 81.6
5/3/2018 22.0 15.0 17.6 3.8 4.6 3.8 90.1
5/2/2018 25.6 16.1 21.1 0.0 0.8 0.0 46.1
5/1/2018 24.1 7.1 16.6 0.0 12.8 0.0 36.6